Terminal Aerodrome Forecast
Issued by NWS Tuscon, AZ

Home | Current Version | Previous Version | Text Only | Print | Product List | Glossary On
Versions: 1 2 3 4 5 6 7 8 9 10 11 12 13 14
000
FTUS45 KTWC 170520
TAFTUS
TAF
KTUS 170520Z 1706/1806 12015G25KT P6SM FEW150 BKN250
     FM172000 07008KT P6SM SCT250
     FM180300 13010KT P6SM FEW250=

USA.gov is the U.S. government's official web portal to all federal, state and local government web resources and services.